Time;durP1;ratioP1;P1;durP2;ratioP2;P2;SDS_P1;SDS_P2;PMS_P1;PMS_P2;Temp;Humidity;BMP_temperature;BMP_pressure;BME280_temperature;BME280_humidity;BME280_pressure;Samples;Min_cycle;Max_cycle;Signal;HPM_P1;HPM_P2
2022/11/05 00:10:47;;;;;;;13.65;7.43;;;;;;;;;;5059282;28;20112;-80
2022/11/05 00:18:40;;;;;;;17.15;7.75;;;;;;;;;;5061061;28;20031;-78
2022/11/05 00:25:12;;;;;;;14.18;7.30;;;;;;;;;;5059102;28;20088;-79
2022/11/05 00:26:39;;;;;;;15.73;7.30;;;;;;;;;;5041106;28;20047;-79
2022/11/05 00:29:04;;;;;;;17.42;8.02;;;;;;;;;;5058930;28;20021;-79
2022/11/05 00:31:31;;;;;;;17.10;8.13;;;;;;;;;;5060488;28;20028;-79
2022/11/05 00:33:56;;;;;;;19.80;8.60;;;;;;;;;;5061000;28;20029;-78
2022/11/05 00:36:22;;;;;;;17.83;8.40;;;;;;;;;;5059449;28;20050;-79
2022/11/05 00:38:47;;;;;;;16.30;8.13;;;;;;;;;;5060077;28;20063;-78
2022/11/05 00:41:12;;;;;;;17.75;8.13;;;;;;;;;;5060659;28;20110;-78
2022/11/05 00:46:22;;;;;;;17.67;9.23;;;;;;;;;;5062875;28;20465;-79
2022/11/05 00:51:31;;;;;;;16.80;9.05;;;;;;;;;;5062619;28;20040;-79
2022/11/05 00:53:56;;;;;;;15.55;8.55;;;;;;;;;;5061958;28;20397;-78
2022/11/05 00:56:21;;;;;;;17.58;9.00;;;;;;;;;;5060402;28;20075;-78
2022/11/05 00:58:47;;;;;;;16.70;8.45;;;;;;;;;;5041507;28;20029;-78
2022/11/05 01:01:13;;;;;;;17.35;9.40;;;;;;;;;;5058671;28;20120;-78
2022/11/05 01:03:39;;;;;;;19.90;8.25;;;;;;;;;;5060072;28;20032;-78
2022/11/05 01:06:13;;;;;;;22.17;9.20;;;;;;;;;;5059073;28;20017;-79
2022/11/05 01:08:39;;;;;;;23.83;9.52;;;;;;;;;;5039751;28;20020;-79
2022/11/05 01:11:31;;;;;;;21.30;10.13;;;;;;;;;;5058011;28;20025;-77
2022/11/05 01:14:01;;;;;;;23.30;10.50;;;;;;;;;;5059894;28;20078;-77
2022/11/05 01:16:26;;;;;;;17.90;9.65;;;;;;;;;;5058315;28;20099;-78
2022/11/05 01:18:51;;;;;;;18.73;9.75;;;;;;;;;;5057045;28;20115;-78
2022/11/05 01:21:16;;;;;;;22.42;10.50;;;;;;;;;;5057111;28;20028;-78
2022/11/05 01:23:42;;;;;;;24.00;10.52;;;;;;;;;;5060003;28;20037;-77
2022/11/05 01:26:07;;;;;;;20.70;10.48;;;;;;;;;;5059298;28;20366;-78
2022/11/05 01:28:32;;;;;;;22.42;11.02;;;;;;;;;;5059817;28;20024;-78
2022/11/05 01:30:57;;;;;;;21.48;10.20;;;;;;;;;;5057101;28;20029;-77
2022/11/05 01:33:23;;;;;;;23.88;10.93;;;;;;;;;;5059499;28;20365;-77
2022/11/05 01:35:50;;;;;;;22.63;11.00;;;;;;;;;;5057213;28;20078;-78
2022/11/05 01:38:16;;;;;;;23.05;11.13;;;;;;;;;;5057015;28;20032;-78
2022/11/05 01:40:41;;;;;;;22.48;10.60;;;;;;;;;;5057334;28;20042;-79
2022/11/05 01:43:14;;;;;;;24.85;11.55;;;;;;;;;;5055901;28;20029;-77
2022/11/05 01:45:41;;;;;;;25.63;11.35;;;;;;;;;;5056775;28;20024;-77
2022/11/05 01:48:17;;;;;;;23.20;10.18;;;;;;;;;;5057894;28;20088;-79
2022/11/05 01:50:55;;;;;;;29.02;11.15;;;;;;;;;;5056574;28;20024;-79
2022/11/05 01:53:33;;;;;;;23.15;10.80;;;;;;;;;;5054184;28;20033;-78
2022/11/05 01:56:22;;;;;;;24.65;10.75;;;;;;;;;;5058222;28;20035;-77
2022/11/05 01:58:53;;;;;;;25.33;10.57;;;;;;;;;;5056953;28;20037;-78
2022/11/05 02:01:18;;;;;;;22.05;10.77;;;;;;;;;;5058775;28;20021;-79
2022/11/05 02:03:46;;;;;;;21.00;9.50;;;;;;;;;;5040845;28;20027;-79
2022/11/05 02:06:15;;;;;;;20.02;9.80;;;;;;;;;;5060598;28;20537;-79
2022/11/05 02:08:53;;;;;;;22.85;9.60;;;;;;;;;;5059598;28;20477;-79
2022/11/05 02:11:19;;;;;;;20.48;9.13;;;;;;;;;;5059528;28;20040;-79
2022/11/05 02:13:46;;;;;;;21.83;8.88;;;;;;;;;;5042622;28;20031;-78
2022/11/05 02:16:39;;;;;;;19.30;8.32;;;;;;;;;;5060464;28;20482;-79
2022/11/05 02:19:17;;;;;;;14.88;7.75;;;;;;;;;;5058659;28;20393;-78
2022/11/05 02:22:15;;;;;;;14.98;7.60;;;;;;;;;;5038298;28;20029;-78
2022/11/05 02:24:43;;;;;;;14.10;6.90;;;;;;;;;;5055567;28;20474;-79
2022/11/05 02:27:19;;;;;;;17.55;7.72;;;;;;;;;;5054771;28;20024;-78
2022/11/05 02:30:22;;;;;;;16.50;6.93;;;;;;;;;;5056120;28;20033;-78
2022/11/05 02:33:11;;;;;;;14.55;7.38;;;;;;;;;;5037691;28;20036;-78
2022/11/05 02:35:52;;;;;;;17.33;8.15;;;;;;;;;;5057006;28;20374;-79
2022/11/05 02:38:34;;;;;;;19.63;8.23;;;;;;;;;;5056971;28;20044;-79
2022/11/05 02:41:04;;;;;;;17.52;7.93;;;;;;;;;;5055257;28;20021;-78
2022/11/05 02:43:47;;;;;;;19.85;8.75;;;;;;;;;;5055893;28;20043;-78
2022/11/05 02:46:25;;;;;;;17.55;9.10;;;;;;;;;;5055615;28;20105;-78
2022/11/05 02:48:58;;;;;;;23.70;8.68;;;;;;;;;;5054907;28;20025;-78
2022/11/05 02:51:54;;;;;;;15.93;7.22;;;;;;;;;;5037190;28;20382;-78
2022/11/05 02:54:36;;;;;;;17.80;9.07;;;;;;;;;;5038168;28;20036;-78
2022/11/05 02:57:03;;;;;;;18.38;8.10;;;;;;;;;;5054463;28;20049;-78
2022/11/05 02:59:29;;;;;;;18.90;8.63;;;;;;;;;;5054605;28;20498;-77
2022/11/05 03:01:56;;;;;;;18.95;8.30;;;;;;;;;;5036723;28;20032;-78
2022/11/05 03:04:23;;;;;;;20.52;9.23;;;;;;;;;;5053162;28;20021;-77
2022/11/05 03:07:07;;;;;;;16.70;8.45;;;;;;;;;;5038510;28;20092;-78
2022/11/05 03:10:00;;;;;;;19.67;8.75;;;;;;;;;;5057744;28;20025;-79
2022/11/05 03:12:31;;;;;;;15.27;8.00;;;;;;;;;;5059537;28;20041;-78
2022/11/05 03:15:06;;;;;;;22.83;8.98;;;;;;;;;;5058209;28;20102;-79
2022/11/05 03:17:55;;;;;;;16.25;8.60;;;;;;;;;;5059004;28;20039;-79
2022/11/05 03:20:38;;;;;;;14.25;7.60;;;;;;;;;;5040259;28;20017;-78
2022/11/05 03:23:28;;;;;;;16.98;7.28;;;;;;;;;;5055749;28;20029;-79
2022/11/05 03:26:17;;;;;;;14.27;7.93;;;;;;;;;;5055635;28;20024;-78
2022/11/05 03:28:51;;;;;;;14.10;7.10;;;;;;;;;;5056210;28;20031;-79
2022/11/05 03:31:19;;;;;;;16.25;7.95;;;;;;;;;;5055807;28;20029;-78
2022/11/05 03:33:46;;;;;;;18.52;8.07;;;;;;;;;;5037358;28;20035;-78
2022/11/05 03:36:19;;;;;;;14.82;8.40;;;;;;;;;;5054969;28;20024;-77
2022/11/05 03:38:48;;;;;;;20.38;8.57;;;;;;;;;;5055279;28;20029;-77
2022/11/05 03:41:15;;;;;;;19.98;7.72;;;;;;;;;;5055645;28;20428;-78
2022/11/05 03:43:45;;;;;;;15.23;7.68;;;;;;;;;;5056743;28;20084;-77
2022/11/05 03:46:20;;;;;;;17.92;8.60;;;;;;;;;;5060776;28;20113;-77
2022/11/05 03:48:49;;;;;;;19.50;8.18;;;;;;;;;;5044682;28;20025;-77
2022/11/05 03:51:17;;;;;;;19.95;8.30;;;;;;;;;;5060985;28;20029;-78
2022/11/05 03:53:48;;;;;;;15.48;8.25;;;;;;;;;;5060932;28;20017;-77
2022/11/05 03:56:40;;;;;;;19.15;9.20;;;;;;;;;;5060711;28;20104;-77
2022/11/05 03:59:08;;;;;;;20.60;9.18;;;;;;;;;;5010022;28;20033;-78
2022/11/05 04:01:36;;;;;;;23.38;9.57;;;;;;;;;;5061167;28;20094;-77
2022/11/05 04:04:02;;;;;;;21.77;9.55;;;;;;;;;;5041346;28;20017;-80
2022/11/05 04:14:39;;;;;;;25.50;11.75;;;;;;;;;;5060793;28;20406;-78
2022/11/05 04:17:05;;;;;;;21.55;10.98;;;;;;;;;;5042762;28;20028;-77
2022/11/05 04:24:58;;;;;;;25.73;11.07;;;;;;;;;;5058073;28;20547;-79
2022/11/05 04:27:23;;;;;;;25.23;11.60;;;;;;;;;;5060675;28;20028;-78
2022/11/05 04:32:32;;;;;;;28.58;11.68;;;;;;;;;;5060930;28;20059;-78
2022/11/05 04:34:58;;;;;;;23.00;11.05;;;;;;;;;;5060707;28;20025;-78
2022/11/05 04:37:23;;;;;;;31.30;12.48;;;;;;;;;;5060209;28;20028;-79
2022/11/05 04:39:48;;;;;;;24.85;11.93;;;;;;;;;;5059770;28;20111;-78
2022/11/05 04:42:13;;;;;;;28.35;11.85;;;;;;;;;;5059375;28;20036;-78
2022/11/05 04:44:39;;;;;;;26.17;11.70;;;;;;;;;;5040948;28;20510;-79
2022/11/05 04:47:04;;;;;;;27.17;10.68;;;;;;;;;;5059253;28;20475;-78
2022/11/05 04:49:29;;;;;;;28.88;12.88;;;;;;;;;;5059711;28;20036;-78
2022/11/05 04:51:54;;;;;;;27.15;12.60;;;;;;;;;;5041702;28;20028;-79
2022/11/05 04:54:20;;;;;;;23.17;12.15;;;;;;;;;;5059226;28;20112;-78
2022/11/05 04:56:45;;;;;;;24.35;11.07;;;;;;;;;;5057911;28;20079;-79
2022/11/05 04:59:10;;;;;;;28.30;12.15;;;;;;;;;;5057623;28;20025;-78
2022/11/05 05:01:35;;;;;;;26.42;12.43;;;;;;;;;;5057435;28;20409;-79
2022/11/05 05:04:01;;;;;;;22.60;11.75;;;;;;;;;;5058578;28;20025;-79
2022/11/05 05:06:26;;;;;;;26.40;12.15;;;;;;;;;;5057049;28;20033;-77
2022/11/05 05:08:52;;;;;;;32.25;12.77;;;;;;;;;;5057579;28;20025;-79
2022/11/05 05:11:19;;;;;;;22.88;9.57;;;;;;;;;;5056947;28;20060;-78
2022/11/05 05:13:44;;;;;;;31.92;12.30;;;;;;;;;;5058817;28;20433;-79
2022/11/05 05:16:21;;;;;;;28.27;11.63;;;;;;;;;;5058797;28;20109;-78
2022/11/05 05:18:47;;;;;;;27.90;11.43;;;;;;;;;;5058786;28;20028;-78
2022/11/05 05:23:58;;;;;;;30.33;12.10;;;;;;;;;;5057631;28;20032;-79
2022/11/05 05:26:24;;;;;;;25.02;12.02;;;;;;;;;;5059359;28;20029;-77
2022/11/05 05:28:51;;;;;;;27.30;12.40;;;;;;;;;;5056242;28;20082;-77
2022/11/05 05:31:17;;;;;;;31.35;12.13;;;;;;;;;;5059607;28;20402;-78
2022/11/05 05:33:42;;;;;;;28.63;12.00;;;;;;;;;;5040646;28;20092;-78
2022/11/05 05:36:08;;;;;;;27.00;11.50;;;;;;;;;;5058786;28;20420;-79
2022/11/05 05:38:33;;;;;;;32.08;12.70;;;;;;;;;;5062338;28;20017;-79
2022/11/05 05:40:59;;;;;;;24.95;12.52;;;;;;;;;;5045566;28;20025;-79
2022/11/05 05:43:32;;;;;;;31.95;12.60;;;;;;;;;;5044896;28;20028;-78
2022/11/05 05:46:01;;;;;;;27.75;12.10;;;;;;;;;;5039856;28;20021;-78
2022/11/05 05:48:26;;;;;;;27.95;11.55;;;;;;;;;;5057393;28;20037;-77
2022/11/05 05:50:52;;;;;;;28.85;13.07;;;;;;;;;;5038378;28;20393;-78
2022/11/05 05:53:17;;;;;;;34.20;12.27;;;;;;;;;;5055490;28;20021;-79
2022/11/05 05:55:42;;;;;;;23.15;11.35;;;;;;;;;;5056404;28;20029;-78
2022/11/05 05:58:08;;;;;;;36.05;12.55;;;;;;;;;;5057971;28;20489;-78
2022/11/05 06:00:33;;;;;;;25.70;11.95;;;;;;;;;;5058655;28;20035;-78
2022/11/05 06:02:58;;;;;;;24.45;11.75;;;;;;;;;;5057991;28;20112;-79
2022/11/05 06:05:24;;;;;;;26.58;11.88;;;;;;;;;;5056428;28;20021;-79
2022/11/05 06:07:56;;;;;;;27.40;11.50;;;;;;;;;;5056509;28;20017;-80
2022/11/05 06:10:22;;;;;;;32.97;11.60;;;;;;;;;;5057261;28;20029;-78
2022/11/05 06:12:47;;;;;;;31.42;11.80;;;;;;;;;;5056280;28;20103;-78
2022/11/05 06:15:12;;;;;;;30.13;11.73;;;;;;;;;;5057238;28;20107;-79
2022/11/05 06:17:38;;;;;;;26.38;11.90;;;;;;;;;;5057623;28;20044;-78
2022/11/05 06:20:03;;;;;;;28.60;12.60;;;;;;;;;;5059551;28;20021;-79
2022/11/05 06:22:29;;;;;;;24.83;12.02;;;;;;;;;;5054370;28;20028;-80
2022/11/05 06:24:54;;;;;;;27.48;12.07;;;;;;;;;;5056377;28;20466;-77
2022/11/05 06:27:19;;;;;;;26.75;12.18;;;;;;;;;;5056284;28;20025;-77
2022/11/05 06:29:44;;;;;;;27.88;12.25;;;;;;;;;;5056448;28;20036;-79
2022/11/05 06:32:09;;;;;;;34.00;12.48;;;;;;;;;;5058024;28;20416;-78
2022/11/05 06:34:35;;;;;;;26.05;11.98;;;;;;;;;;5056411;28;20024;-79
2022/11/05 06:37:01;;;;;;;29.00;12.43;;;;;;;;;;5054793;28;20027;-78
2022/11/05 06:39:26;;;;;;;23.55;11.60;;;;;;;;;;5056592;28;20065;-78
2022/11/05 06:41:51;;;;;;;26.60;11.70;;;;;;;;;;5056754;28;20013;-78
2022/11/05 06:44:16;;;;;;;31.77;12.23;;;;;;;;;;5037651;28;20094;-77
2022/11/05 06:46:42;;;;;;;26.45;11.32;;;;;;;;;;5055320;28;20520;-77
2022/11/05 06:49:07;;;;;;;24.13;11.57;;;;;;;;;;5056359;28;20044;-78
2022/11/05 06:51:32;;;;;;;25.75;10.85;;;;;;;;;;5055900;28;20036;-79
2022/11/05 06:53:57;;;;;;;30.88;11.20;;;;;;;;;;5055539;28;20045;-78
2022/11/05 06:56:23;;;;;;;25.23;11.55;;;;;;;;;;5055823;28;20462;-77
2022/11/05 06:58:48;;;;;;;24.55;11.25;;;;;;;;;;5053699;28;20043;-77
2022/11/05 07:01:13;;;;;;;23.90;10.93;;;;;;;;;;5054428;28;20104;-79
2022/11/05 07:03:38;;;;;;;28.50;11.02;;;;;;;;;;5053692;28;20385;-78
2022/11/05 07:06:05;;;;;;;25.17;11.07;;;;;;;;;;5055262;28;20434;-78
2022/11/05 07:08:34;;;;;;;28.40;11.38;;;;;;;;;;5058234;28;20033;-78
2022/11/05 07:11:00;;;;;;;26.75;10.35;;;;;;;;;;5056827;28;20025;-77
2022/11/05 07:13:25;;;;;;;25.90;11.77;;;;;;;;;;5055295;28;20538;-77
2022/11/05 07:15:51;;;;;;;23.40;11.20;;;;;;;;;;5059315;28;20025;-78
2022/11/05 07:18:16;;;;;;;26.55;11.38;;;;;;;;;;5060852;28;20029;-78
2022/11/05 07:20:41;;;;;;;23.98;10.65;;;;;;;;;;5059501;28;20083;-78
2022/11/05 07:23:11;;;;;;;27.65;10.90;;;;;;;;;;5042137;28;20110;-78
2022/11/05 07:25:38;;;;;;;24.90;11.35;;;;;;;;;;5059679;28;20033;-77
2022/11/05 07:28:04;;;;;;;25.80;11.55;;;;;;;;;;5036622;28;20031;-78
2022/11/05 07:30:31;;;;;;;27.30;11.00;;;;;;;;;;5054863;28;20108;-78
2022/11/05 07:32:57;;;;;;;25.88;10.82;;;;;;;;;;5054571;28;20100;-78
2022/11/05 07:35:22;;;;;;;32.10;11.82;;;;;;;;;;5055165;28;20070;-77
2022/11/05 07:37:50;;;;;;;25.67;9.88;;;;;;;;;;5054838;28;20025;-77
2022/11/05 07:40:18;;;;;;;27.50;11.55;;;;;;;;;;5054603;28;20036;-77
2022/11/05 07:42:55;;;;;;;29.13;10.18;;;;;;;;;;5054431;28;20025;-77
2022/11/05 07:45:21;;;;;;;24.42;10.15;;;;;;;;;;5054617;28;20021;-77
2022/11/05 07:47:48;;;;;;;26.67;9.43;;;;;;;;;;5055228;28;20039;-78
2022/11/05 07:50:16;;;;;;;21.08;10.52;;;;;;;;;;5054216;28;20028;-78
2022/11/05 07:52:42;;;;;;;24.33;9.98;;;;;;;;;;5057352;28;20033;-78
2022/11/05 07:55:08;;;;;;;26.23;10.07;;;;;;;;;;5057794;28;20500;-78
2022/11/05 07:57:41;;;;;;;22.67;10.10;;;;;;;;;;5037131;28;20443;-77
2022/11/05 08:00:08;;;;;;;23.33;9.57;;;;;;;;;;5055105;28;20143;-79
2022/11/05 08:02:33;;;;;;;24.05;10.18;;;;;;;;;;5054410;28;20104;-78
2022/11/05 08:04:58;;;;;;;18.98;9.75;;;;;;;;;;5055410;28;20056;-78
2022/11/05 08:07:23;;;;;;;18.52;9.65;;;;;;;;;;5037581;28;20079;-78
2022/11/05 08:09:48;;;;;;;21.95;10.20;;;;;;;;;;5054276;28;20409;-78
2022/11/05 08:12:14;;;;;;;25.83;10.52;;;;;;;;;;5054501;28;20057;-78
2022/11/05 08:14:39;;;;;;;21.85;9.55;;;;;;;;;;5055109;28;20029;-78
2022/11/05 08:17:04;;;;;;;25.08;9.88;;;;;;;;;;5054807;28;20031;-78
2022/11/05 08:19:29;;;;;;;21.08;8.68;;;;;;;;;;5055264;28;20467;-78
2022/11/05 08:21:55;;;;;;;17.58;8.63;;;;;;;;;;5055129;28;20024;-77
2022/11/05 08:24:20;;;;;;;21.25;9.45;;;;;;;;;;5037678;28;20398;-77
2022/11/05 08:26:45;;;;;;;23.40;9.55;;;;;;;;;;5055790;28;20025;-77
2022/11/05 08:29:10;;;;;;;26.70;10.00;;;;;;;;;;5055396;28;20021;-77
2022/11/05 08:31:36;;;;;;;19.73;8.75;;;;;;;;;;5038428;28;20071;-78
2022/11/05 08:34:01;;;;;;;21.48;9.02;;;;;;;;;;5040287;28;20057;-78
2022/11/05 08:36:26;;;;;;;21.90;8.80;;;;;;;;;;5057939;28;20091;-78
2022/11/05 08:38:52;;;;;;;22.55;9.25;;;;;;;;;;5060060;28;20084;-77
2022/11/05 08:41:17;;;;;;;29.33;8.48;;;;;;;;;;5059592;28;20028;-78
2022/11/05 08:43:42;;;;;;;18.13;8.40;;;;;;;;;;5058785;28;20044;-78
2022/11/05 08:46:07;;;;;;;24.00;8.55;;;;;;;;;;5058289;28;20497;-78
2022/11/05 08:48:33;;;;;;;21.13;8.15;;;;;;;;;;5060268;28;20037;-79
2022/11/05 08:50:59;;;;;;;17.83;7.65;;;;;;;;;;5043894;28;20029;-77
2022/11/05 08:53:25;;;;;;;20.58;7.65;;;;;;;;;;5058656;28;20389;-78
2022/11/05 08:55:50;;;;;;;25.35;8.35;;;;;;;;;;5058353;28;20050;-79
2022/11/05 08:58:16;;;;;;;18.67;6.45;;;;;;;;;;5061299;28;20028;-79
2022/11/05 09:00:46;;;;;;;22.73;7.85;;;;;;;;;;5059410;28;20047;-78
2022/11/05 09:03:12;;;;;;;23.50;7.38;;;;;;;;;;5059205;28;20032;-78
2022/11/05 09:05:39;;;;;;;19.08;7.10;;;;;;;;;;5058937;28;20024;-78
2022/11/05 09:08:06;;;;;;;20.52;6.90;;;;;;;;;;5060170;28;20048;-77
2022/11/05 09:10:31;;;;;;;18.02;7.25;;;;;;;;;;5039656;28;20025;-79
2022/11/05 09:12:56;;;;;;;15.60;6.22;;;;;;;;;;5059726;28;20020;-79
2022/11/05 09:15:23;;;;;;;13.90;7.22;;;;;;;;;;5043953;28;20027;-79
2022/11/05 09:17:48;;;;;;;17.17;6.80;;;;;;;;;;5062519;28;20029;-79
2022/11/05 09:20:14;;;;;;;16.52;7.28;;;;;;;;;;5057958;28;20478;-78
2022/11/05 09:22:39;;;;;;;15.57;6.82;;;;;;;;;;5039696;28;20025;-78
2022/11/05 09:25:05;;;;;;;13.95;6.35;;;;;;;;;;5040111;28;20043;-78
2022/11/05 09:27:31;;;;;;;17.55;6.90;;;;;;;;;;5057304;28;20095;-78
2022/11/05 09:29:56;;;;;;;18.20;6.28;;;;;;;;;;5057147;28;20482;-77
2022/11/05 09:32:22;;;;;;;19.13;6.32;;;;;;;;;;5056932;28;20017;-78
2022/11/05 09:34:47;;;;;;;19.50;6.63;;;;;;;;;;5056158;28;20025;-78
2022/11/05 09:37:13;;;;;;;14.48;6.28;;;;;;;;;;5057119;28;20056;-77
2022/11/05 09:39:38;;;;;;;14.07;6.03;;;;;;;;;;5057443;28;20021;-77
2022/11/05 09:42:06;;;;;;;14.52;5.82;;;;;;;;;;5056441;28;20071;-78
2022/11/05 09:44:37;;;;;;;14.20;6.05;;;;;;;;;;5056674;28;20025;-77
2022/11/05 09:47:09;;;;;;;18.15;5.68;;;;;;;;;;5057726;28;20464;-78
2022/11/05 09:49:41;;;;;;;16.25;6.72;;;;;;;;;;5056794;28;20425;-77
2022/11/05 09:52:19;;;;;;;14.88;5.90;;;;;;;;;;5056061;28;20087;-77
2022/11/05 09:54:47;;;;;;;14.65;5.40;;;;;;;;;;5057579;28;20111;-77
2022/11/05 09:57:17;;;;;;;11.13;5.43;;;;;;;;;;5056173;28;20116;-78
2022/11/05 09:59:51;;;;;;;12.82;4.97;;;;;;;;;;5056298;28;20029;-79
2022/11/05 10:02:20;;;;;;;18.08;4.95;;;;;;;;;;5057099;28;20017;-79
2022/11/05 10:04:49;;;;;;;20.67;5.20;;;;;;;;;;5037948;28;20033;-77
2022/11/05 10:07:19;;;;;;;10.43;4.60;;;;;;;;;;5056546;28;20021;-78
2022/11/05 10:09:47;;;;;;;9.40;4.20;;;;;;;;;;5056224;28;20108;-78
2022/11/05 10:12:23;;;;;;;13.32;4.70;;;;;;;;;;5059998;28;20430;-79
2022/11/05 10:14:54;;;;;;;10.48;4.40;;;;;;;;;;5057131;28;20033;-81
2022/11/05 10:17:23;;;;;;;10.82;4.68;;;;;;;;;;5057145;28;20063;-78
2022/11/05 10:20:17;;;;;;;14.85;4.57;;;;;;;;;;5056636;28;20025;-78
2022/11/05 10:22:42;;;;;;;11.32;4.18;;;;;;;;;;5055826;28;20017;-77
2022/11/05 10:25:19;;;;;;;12.55;4.00;;;;;;;;;;5055615;28;20031;-77
2022/11/05 10:27:53;;;;;;;13.63;4.43;;;;;;;;;;5056219;28;20530;-78
2022/11/05 10:30:19;;;;;;;12.32;3.80;;;;;;;;;;5057975;28;20108;-78
2022/11/05 10:32:45;;;;;;;11.70;3.80;;;;;;;;;;5057070;28;20060;-77
2022/11/05 10:35:17;;;;;;;10.93;3.78;;;;;;;;;;5055240;28;20504;-78
2022/11/05 10:37:42;;;;;;;16.33;3.80;;;;;;;;;;5038376;28;20057;-78
2022/11/05 10:40:30;;;;;;;11.98;4.18;;;;;;;;;;5056202;28;20021;-77
2022/11/05 10:43:14;;;;;;;14.90;3.75;;;;;;;;;;5055654;28;20028;-77
2022/11/05 10:45:54;;;;;;;7.50;3.72;;;;;;;;;;5036470;28;20350;-77
2022/11/05 10:48:25;;;;;;;12.07;3.45;;;;;;;;;;5054732;28;20086;-79
2022/11/05 10:50:50;;;;;;;13.45;3.47;;;;;;;;;;5054377;28;20037;-76
2022/11/05 10:53:28;;;;;;;9.48;3.40;;;;;;;;;;5054168;28;20102;-77
2022/11/05 10:55:57;;;;;;;12.23;2.70;;;;;;;;;;5055079;28;20481;-77
2022/11/05 10:58:27;;;;;;;13.65;3.17;;;;;;;;;;5055314;28;20047;-78
2022/11/05 11:00:53;;;;;;;15.68;2.63;;;;;;;;;;5054393;28;20020;-78
2022/11/05 11:03:47;;;;;;;8.83;2.83;;;;;;;;;;5055755;28;20028;-76
2022/11/05 11:06:16;;;;;;;9.98;3.00;;;;;;;;;;5056170;28;20308;-77
2022/11/05 11:08:44;;;;;;;9.10;2.88;;;;;;;;;;5054871;28;20037;-77
2022/11/05 11:11:10;;;;;;;5.97;2.35;;;;;;;;;;5055848;28;20025;-78
2022/11/05 11:13:50;;;;;;;12.82;2.80;;;;;;;;;;5055305;28;20025;-78
2022/11/05 11:16:22;;;;;;;10.43;2.50;;;;;;;;;;5055515;28;20031;-79
2022/11/05 11:18:53;;;;;;;10.80;2.42;;;;;;;;;;5055552;28;20032;-78
2022/11/05 11:21:21;;;;;;;14.13;2.88;;;;;;;;;;5037650;28;20112;-77
2022/11/05 11:24:05;;;;;;;8.70;2.45;;;;;;;;;;5055619;28;20025;-78
2022/11/05 11:26:38;;;;;;;11.48;2.72;;;;;;;;;;5055579;28;20032;-80
2022/11/05 11:29:20;;;;;;;8.98;2.28;;;;;;;;;;5057023;28;20037;-79
2022/11/05 11:31:45;;;;;;;10.63;2.33;;;;;;;;;;5039272;28;20032;-81
2022/11/05 11:34:30;;;;;;;8.68;2.10;;;;;;;;;;5040600;28;20025;-79
2022/11/05 11:37:22;;;;;;;7.25;1.98;;;;;;;;;;5057411;28;20075;-79
2022/11/05 11:39:52;;;;;;;7.68;2.20;;;;;;;;;;5057424;28;20097;-80
2022/11/05 11:42:26;;;;;;;13.52;2.10;;;;;;;;;;5056486;28;20470;-77
2022/11/05 11:44:51;;;;;;;;;;;;;;;;;;5038803;28;20025;-78
2022/11/05 11:47:19;;;;;;;6.32;2.00;;;;;;;;;;5035534;28;20350;-77
2022/11/05 11:49:52;;;;;;;9.00;2.00;;;;;;;;;;5055958;28;20412;-79
2022/11/05 11:52:28;;;;;;;7.43;1.83;;;;;;;;;;5055231;28;20466;-78
2022/11/05 11:55:17;;;;;;;7.63;2.00;;;;;;;;;;5058354;28;20056;-79
2022/11/05 11:57:51;;;;;;;9.52;1.75;;;;;;;;;;5058826;28;20116;-78
2022/11/05 12:00:18;;;;;;;8.05;1.73;;;;;;;;;;5055371;28;20029;-77
2022/11/05 12:02:46;;;;;;;11.23;1.80;;;;;;;;;;5058044;28;20033;-78
2022/11/05 12:05:39;;;;;;;8.55;2.08;;;;;;;;;;5057992;28;20017;-79
2022/11/05 12:08:23;;;;;;;9.98;1.88;;;;;;;;;;5058746;28;20029;-78
2022/11/05 12:11:03;;;;;;;6.53;1.85;;;;;;;;;;5043300;28;20071;-78
2022/11/05 12:13:38;;;;;;;9.80;1.73;;;;;;;;;;5060282;28;20489;-79
2022/11/05 12:16:30;;;;;;;11.23;2.05;;;;;;;;;;5045198;28;20090;-78
2022/11/05 12:19:30;;;;;;;14.27;1.60;;;;;;;;;;5064291;28;20029;-77
2022/11/05 12:22:19;;;;;;;11.00;1.80;;;;;;;;;;5064356;28;20482;-78
2022/11/05 12:25:01;;;;;;;9.60;1.65;;;;;;;;;;5063750;28;20083;-79
2022/11/05 12:27:45;;;;;;;7.22;1.60;;;;;;;;;;5065736;28;20413;-79
2022/11/05 12:30:14;;;;;;;7.65;1.63;;;;;;;;;;5059872;28;20029;-78
2022/11/05 12:33:00;;;;;;;5.95;1.58;;;;;;;;;;5041655;28;20028;-79
2022/11/05 12:35:40;;;;;;;5.22;1.08;;;;;;;;;;5039974;28;20387;-77
2022/11/05 12:38:15;;;;;;;9.75;1.65;;;;;;;;;;5058520;28;20436;-79
2022/11/05 12:41:13;;;;;;;9.30;1.92;;;;;;;;;;5059725;28;20029;-78
2022/11/05 12:43:51;;;;;;;6.70;1.13;;;;;;;;;;5042369;28;20142;-78
2022/11/05 12:46:39;;;;;;;5.78;1.30;;;;;;;;;;5060970;28;20090;-78
2022/11/05 12:49:29;;;;;;;8.77;1.23;;;;;;;;;;5059678;28;20029;-78
2022/11/05 12:52:02;;;;;;;6.35;1.17;;;;;;;;;;5058503;28;20369;-77
2022/11/05 12:54:46;;;;;;;10.20;1.43;;;;;;;;;;5059952;28;20025;-79
2022/11/05 12:57:13;;;;;;;10.57;1.43;;;;;;;;;;5059228;28;20024;-79
2022/11/05 12:59:46;;;;;;;7.95;1.30;;;;;;;;;;5059933;28;20028;-79
2022/11/05 13:02:32;;;;;;;11.30;1.80;;;;;;;;;;5041119;28;20028;-78
2022/11/05 13:05:37;;;;;;;9.10;1.35;;;;;;;;;;5057148;28;20505;-78
2022/11/05 13:08:11;;;;;;;9.20;1.52;;;;;;;;;;5060082;28;20060;-78
2022/11/05 13:10:39;;;;;;;;;;;;;;;;;;5059396;28;20025;-77
2022/11/05 13:13:17;;;;;;;9.27;1.40;;;;;;;;;;5059893;28;19916;-79
2022/11/05 13:15:56;;;;;;;6.88;1.40;;;;;;;;;;5058899;28;20039;-78
2022/11/05 13:18:33;;;;;;;7.25;1.35;;;;;;;;;;5040646;28;20029;-78
2022/11/05 13:21:02;;;;;;;6.95;1.67;;;;;;;;;;5058346;28;20051;-78
2022/11/05 13:23:27;;;;;;;16.48;1.70;;;;;;;;;;5057791;28;20032;-78
2022/11/05 13:25:58;;;;;;;5.88;1.23;;;;;;;;;;5057302;28;20028;-78
2022/11/05 13:28:46;;;;;;;6.03;1.40;;;;;;;;;;5040747;28;20032;-80
2022/11/05 13:31:17;;;;;;;5.95;1.40;;;;;;;;;;5058365;28;20028;-78
2022/11/05 13:33:45;;;;;;;8.45;1.38;;;;;;;;;;5058336;28;20028;-77
2022/11/05 13:39:21;;;;;;;6.65;1.40;;;;;;;;;;5057839;28;20106;-78
2022/11/05 13:42:04;;;;;;;7.70;1.38;;;;;;;;;;5057538;28;20150;-78
2022/11/05 13:44:59;;;;;;;7.50;1.55;;;;;;;;;;5057861;28;20440;-78
2022/11/05 13:47:41;;;;;;;6.82;1.13;;;;;;;;;;5057776;28;20025;-78
2022/11/05 13:50:28;;;;;;;7.57;1.40;;;;;;;;;;5039386;28;20040;-78
2022/11/05 13:53:20;;;;;;;6.38;1.42;;;;;;;;;;5056358;28;20478;-79
2022/11/05 13:56:03;;;;;;;4.85;1.33;;;;;;;;;;5041748;28;20061;-78
2022/11/05 13:58:55;;;;;;;6.33;1.20;;;;;;;;;;5056326;28;20021;-78
2022/11/05 14:01:20;;;;;;;3.35;1.33;;;;;;;;;;5056189;28;20261;-77
2022/11/05 14:03:48;;;;;;;5.67;1.30;;;;;;;;;;5055929;28;20116;-77
2022/11/05 14:06:22;;;;;;;9.02;1.60;;;;;;;;;;5056225;28;20269;-78
2022/11/05 14:08:48;;;;;;;6.65;1.38;;;;;;;;;;5057223;28;20067;-78
2022/11/05 14:11:25;;;;;;;7.03;1.30;;;;;;;;;;5054992;28;20064;-77
2022/11/05 14:13:56;;;;;;;13.77;1.83;;;;;;;;;;5055496;28;20032;-77
2022/11/05 14:16:24;;;;;;;7.18;1.23;;;;;;;;;;5054661;28;20029;-79
2022/11/05 14:19:17;;;;;;;7.20;1.30;;;;;;;;;;5056131;28;20033;-76
2022/11/05 14:21:51;;;;;;;11.00;1.73;;;;;;;;;;5055579;28;20478;-77
2022/11/05 14:24:24;;;;;;;11.18;1.67;;;;;;;;;;5058262;28;20093;-79
2022/11/05 14:27:02;;;;;;;13.05;1.55;;;;;;;;;;5058230;28;20028;-78
2022/11/05 14:29:46;;;;;;;10.98;2.10;;;;;;;;;;5056215;28;20047;-78
2022/11/05 14:32:20;;;;;;;9.85;2.00;;;;;;;;;;5055486;28;20060;-77
2022/11/05 14:35:32;;;;;;;5.63;1.27;;;;;;;;;;5054646;28;20524;-79
2022/11/05 14:37:58;;;;;;;7.53;1.40;;;;;;;;;;5054212;28;20033;-77
2022/11/05 14:40:41;;;;;;;9.30;1.60;;;;;;;;;;5054242;28;20112;-77
2022/11/05 14:43:12;;;;;;;6.95;1.40;;;;;;;;;;5054867;28;20021;-78
2022/11/05 14:45:41;;;;;;;8.35;1.13;;;;;;;;;;5055418;28;20087;-78
2022/11/05 14:48:36;;;;;;;6.05;1.35;;;;;;;;;;5054821;28;20474;-77
2022/11/05 14:51:17;;;;;;;7.18;1.52;;;;;;;;;;5010904;28;1013597;-78
2022/11/05 14:53:42;;;;;;;7.55;1.38;;;;;;;;;;5055025;28;20535;-77
2022/11/05 14:56:17;;;;;;;11.55;1.40;;;;;;;;;;5037046;28;20024;-79
2022/11/05 14:58:44;;;;;;;6.00;1.40;;;;;;;;;;5054776;28;20051;-76
2022/11/05 15:01:13;;;;;;;8.80;1.40;;;;;;;;;;5055053;28;20029;-78
2022/11/05 15:03:38;;;;;;;8.43;1.30;;;;;;;;;;5037257;28;20025;-77
2022/11/05 15:06:20;;;;;;;8.60;1.67;;;;;;;;;;5057429;28;20037;-77
2022/11/05 15:08:48;;;;;;;12.30;1.45;;;;;;;;;;5056708;28;20273;-79
2022/11/05 15:11:30;;;;;;;6.72;2.17;;;;;;;;;;5054641;28;20036;-77
2022/11/05 15:14:03;;;;;;;7.60;1.48;;;;;;;;;;5036912;28;20025;-78
2022/11/05 15:16:35;;;;;;;6.18;1.65;;;;;;;;;;5037548;28;20021;-78
2022/11/05 15:19:02;;;;;;;6.53;1.83;;;;;;;;;;5055219;28;20116;-78
2022/11/05 15:21:31;;;;;;;7.22;1.83;;;;;;;;;;5054283;28;20021;-78
2022/11/05 15:23:57;;;;;;;7.03;1.58;;;;;;;;;;5054304;28;20386;-78
2022/11/05 15:26:25;;;;;;;9.95;1.83;;;;;;;;;;5054333;28;20029;-78
2022/11/05 15:28:53;;;;;;;5.10;1.63;;;;;;;;;;5054374;28;20067;-78
2022/11/05 15:31:27;;;;;;;8.68;1.95;;;;;;;;;;5054742;28;20037;-78
2022/11/05 15:34:20;;;;;;;9.02;1.60;;;;;;;;;;5057906;28;20034;-78
2022/11/05 15:37:10;;;;;;;4.95;1.70;;;;;;;;;;5055448;28;20078;-77
2022/11/05 15:39:44;;;;;;;5.47;1.52;;;;;;;;;;5043556;28;20043;-77